Time;durP1;ratioP1;P1;durP2;ratioP2;P2;SDS_P1;SDS_P2;PMS_P1;PMS_P2;Temp;Humidity;BMP_temperature;BMP_pressure;BME280_temperature;BME280_humidity;BME280_pressure;Samples;Min_cycle;Max_cycle;Signal;HPM_P1;HPM_P2
2023/09/09 00:00:26;;;;;;;3.47;3.30;;;16.20;99.90;;;;;;4192538;28;20158;-57
2023/09/09 00:02:49;;;;;;;2.80;2.70;;;16.10;99.90;;;;;;4194309;28;20056;-57
2023/09/09 00:05:11;;;;;;;3.25;3.15;;;16.10;99.90;;;;;;4192154;28;20051;-57
2023/09/09 00:07:33;;;;;;;4.22;4.13;;;16.10;99.90;;;;;;4191508;28;20056;-57
2023/09/09 00:09:54;;;;;;;4.25;3.78;;;16.00;99.90;;;;;;4192089;28;20244;-57
2023/09/09 00:12:16;;;;;;;4.05;3.75;;;15.90;99.90;;;;;;4192889;28;20043;-57
2023/09/09 00:14:37;;;;;;;4.10;3.90;;;15.90;99.90;;;;;;4193736;28;20558;-57
2023/09/09 00:16:58;;;;;;;4.32;4.10;;;15.80;99.90;;;;;;4192147;28;20390;-57
2023/09/09 00:19:21;;;;;;;3.92;3.83;;;15.80;99.90;;;;;;4192820;28;20416;-57
2023/09/09 00:21:41;;;;;;;4.03;3.92;;;15.70;99.90;;;;;;4192651;28;20051;-57
2023/09/09 00:24:01;;;;;;;3.97;3.78;;;15.60;99.90;;;;;;4191556;28;20090;-57
2023/09/09 00:26:21;;;;;;;3.88;3.78;;;15.50;99.90;;;;;;4191572;28;20048;-57
2023/09/09 00:28:41;;;;;;;4.75;4.47;;;15.40;99.90;;;;;;4191215;28;20370;-57
2023/09/09 00:31:01;;;;;;;3.35;2.92;;;15.20;99.90;;;;;;4190459;28;20363;-57
2023/09/09 00:33:21;;;;;;;3.92;3.83;;;15.30;99.90;;;;;;4191148;28;20139;-57
2023/09/09 00:35:41;;;;;;;4.28;4.18;;;15.40;99.90;;;;;;4191112;28;20067;-57
2023/09/09 00:38:01;;;;;;;4.85;4.55;;;15.50;99.90;;;;;;4195274;28;20051;-57
2023/09/09 00:40:21;;;;;;;4.22;4.13;;;15.30;99.90;;;;;;4192255;28;20052;-57
2023/09/09 00:42:41;;;;;;;5.60;5.07;;;15.20;99.90;;;;;;4192630;28;20052;-57
2023/09/09 00:45:01;;;;;;;5.97;5.57;;;15.00;99.90;;;;;;4192916;28;20055;-57
2023/09/09 00:47:22;;;;;;;4.20;4.10;;;14.90;99.90;;;;;;4192710;28;20036;-57
2023/09/09 00:49:43;;;;;;;4.05;3.40;;;14.90;99.90;;;;;;4190240;28;20082;-57
2023/09/09 00:52:03;;;;;;;4.28;4.15;;;15.00;99.90;;;;;;4190788;28;20088;-57
2023/09/09 00:54:24;;;;;;;4.85;4.72;;;15.10;99.90;;;;;;4189227;28;20062;-57
2023/09/09 00:56:44;;;;;;;4.00;3.90;;;15.00;99.90;;;;;;4189470;28;20044;-56
2023/09/09 00:59:05;;;;;;;3.75;3.65;;;15.00;99.90;;;;;;4190077;28;20052;-57
2023/09/09 01:01:25;;;;;;;4.05;3.95;;;15.10;99.90;;;;;;4191450;28;20371;-57
2023/09/09 01:03:45;;;;;;;4.35;4.25;;;15.00;99.90;;;;;;4190951;28;20139;-57
2023/09/09 01:06:06;;;;;;;4.60;4.43;;;14.90;99.90;;;;;;4190079;28;20043;-57
2023/09/09 01:08:27;;;;;;;4.57;4.28;;;14.80;99.90;;;;;;4191595;28;20048;-56
2023/09/09 01:10:47;;;;;;;4.68;4.57;;;14.80;99.90;;;;;;4192210;28;20040;-56
2023/09/09 01:13:07;;;;;;;4.10;4.00;;;15.00;99.90;;;;;;4190784;28;20056;-57
2023/09/09 01:15:28;;;;;;;4.13;3.38;;;15.00;99.90;;;;;;4192619;28;20082;-56
2023/09/09 01:17:48;;;;;;;3.95;3.85;;;15.00;99.90;;;;;;4190186;28;20048;-57
2023/09/09 01:20:14;;;;;;;3.58;3.47;;;15.10;99.90;;;;;;4191333;28;20085;-57
2023/09/09 01:22:37;;;;;;;2.88;2.78;;;14.70;99.90;;;;;;4189756;28;20383;-57
2023/09/09 01:24:58;;;;;;;3.50;3.40;;;14.80;99.90;;;;;;4188323;28;20075;-57
2023/09/09 01:27:17;;;;;;;3.42;3.28;;;14.90;99.90;;;;;;4192756;28;20067;-57
2023/09/09 01:29:37;;;;;;;3.22;3.13;;;14.90;99.90;;;;;;4189744;28;20075;-57
2023/09/09 01:31:57;;;;;;;3.08;3.00;;;15.10;99.90;;;;;;4193339;28;20116;-56
2023/09/09 01:34:17;;;;;;;3.10;3.00;;;15.10;99.90;;;;;;4192325;28;20094;-56
2023/09/09 01:36:37;;;;;;;2.35;2.35;;;15.20;99.90;;;;;;4192382;28;20055;-57
2023/09/09 01:38:56;;;;;;;4.00;3.70;;;15.20;99.90;;;;;;4193783;28;20370;-56
2023/09/09 01:41:16;;;;;;;4.15;4.00;;;15.00;99.90;;;;;;4191438;28;20087;-56
2023/09/09 01:43:36;;;;;;;2.95;2.85;;;15.10;99.90;;;;;;4191653;28;20387;-57
2023/09/09 01:45:56;;;;;;;4.95;4.63;;;14.90;99.90;;;;;;4191242;28;20079;-57
2023/09/09 01:48:16;;;;;;;4.97;4.82;;;14.80;99.90;;;;;;4190120;28;20107;-56
2023/09/09 01:50:37;;;;;;;5.30;5.07;;;14.50;99.90;;;;;;4189178;28;20243;-57
2023/09/09 01:52:57;;;;;;;4.45;4.35;;;14.50;99.90;;;;;;4190188;28;20052;-57
2023/09/09 01:55:18;;;;;;;4.00;3.90;;;14.50;99.90;;;;;;4192488;28;20052;-57
2023/09/09 01:57:38;;;;;;;5.03;4.82;;;14.40;99.90;;;;;;4193362;28;20090;-56
2023/09/09 01:59:58;;;;;;;3.97;3.88;;;14.30;99.90;;;;;;4191844;28;20094;-56
2023/09/09 02:02:17;;;;;;;4.43;4.22;;;14.20;99.90;;;;;;4194141;28;20051;-57
2023/09/09 02:04:37;;;;;;;4.28;4.18;;;14.10;99.90;;;;;;4192591;28;20235;-57
2023/09/09 02:06:57;;;;;;;4.47;4.35;;;14.10;99.90;;;;;;4190926;28;20067;-56
2023/09/09 02:09:17;;;;;;;4.88;4.75;;;14.00;99.90;;;;;;4191072;28;20086;-57
2023/09/09 02:11:37;;;;;;;5.20;5.10;;;14.10;99.90;;;;;;4190765;28;20079;-57
2023/09/09 02:13:57;;;;;;;4.40;4.30;;;14.10;99.90;;;;;;4188878;28;20067;-56
2023/09/09 02:16:18;;;;;;;3.97;3.88;;;14.10;99.90;;;;;;4189484;28;20104;-56
2023/09/09 02:18:39;;;;;;;4.15;4.05;;;14.10;99.90;;;;;;4189310;28;20098;-57
2023/09/09 02:21:00;;;;;;;3.95;3.65;;;14.20;99.90;;;;;;4189338;28;20244;-57
2023/09/09 02:23:20;;;;;;;3.92;3.83;;;14.30;99.90;;;;;;4189534;28;20112;-56
2023/09/09 02:25:40;;;;;;;3.78;3.67;;;14.40;99.90;;;;;;4188235;28;20097;-57
2023/09/09 02:28:00;;;;;;;3.67;3.58;;;14.40;99.90;;;;;;4189925;28;20104;-57
2023/09/09 02:30:21;;;;;;;3.95;3.78;;;14.40;99.90;;;;;;4189346;28;20076;-56
2023/09/09 02:32:43;;;;;;;4.40;4.20;;;14.50;99.90;;;;;;4189484;28;20052;-57
2023/09/09 02:35:04;;;;;;;4.50;4.30;;;14.50;99.90;;;;;;4190242;28;20085;-56
2023/09/09 02:37:26;;;;;;;4.78;4.68;;;14.40;99.90;;;;;;4190019;28;20048;-57
2023/09/09 02:39:47;;;;;;;3.97;3.88;;;14.40;99.90;;;;;;4190150;28;20051;-56
2023/09/09 02:42:10;;;;;;;4.18;4.05;;;14.30;99.90;;;;;;4192699;28;20048;-57
2023/09/09 02:44:30;;;;;;;5.00;4.80;;;14.30;99.90;;;;;;4193810;28;20083;-57
2023/09/09 02:46:49;;;;;;;5.15;4.93;;;14.20;99.90;;;;;;4195425;28;20240;-56
2023/09/09 02:49:10;;;;;;;4.82;4.68;;;14.20;99.90;;;;;;4195240;28;20056;-57
2023/09/09 02:51:30;;;;;;;4.78;4.38;;;14.10;99.90;;;;;;4194144;28;20075;-57
2023/09/09 02:53:50;;;;;;;5.07;4.82;;;14.30;99.90;;;;;;4195614;28;20170;-57
2023/09/09 02:56:11;;;;;;;5.00;4.70;;;14.10;99.90;;;;;;4197979;28;20039;-56
2023/09/09 02:58:31;;;;;;;4.50;4.30;;;13.80;99.90;;;;;;4196590;28;20105;-57
2023/09/09 03:00:51;;;;;;;5.93;5.70;;;13.70;99.90;;;;;;4195795;28;20370;-57
2023/09/09 03:03:12;;;;;;;4.97;4.88;;;13.60;99.90;;;;;;4195506;28;20079;-56
2023/09/09 03:05:38;;;;;;;4.20;4.10;;;13.80;99.90;;;;;;4194506;28;20052;-56
2023/09/09 03:07:58;;;;;;;4.47;4.28;;;13.70;99.90;;;;;;4195345;28;20083;-56
2023/09/09 03:10:18;;;;;;;4.93;4.72;;;13.80;99.90;;;;;;4197126;28;20048;-56
2023/09/09 03:12:38;;;;;;;13.90;4.45;;;13.70;99.90;;;;;;4196020;28;20254;-56
2023/09/09 03:14:58;;;;;;;5.70;5.28;;;13.70;99.90;;;;;;4195943;28;20071;-57
2023/09/09 03:17:19;;;;;;;4.68;4.38;;;13.80;99.90;;;;;;4195438;28;20048;-56
2023/09/09 03:19:39;;;;;;;5.57;5.28;;;13.80;99.90;;;;;;4194547;28;20056;-57
2023/09/09 03:21:59;;;;;;;4.75;4.65;;;13.80;99.90;;;;;;4196615;28;20048;-57
2023/09/09 03:24:19;;;;;;;4.70;4.40;;;13.70;99.90;;;;;;4195187;28;20103;-56
2023/09/09 03:26:39;;;;;;;4.93;4.82;;;13.70;99.90;;;;;;4195440;28;20052;-56
2023/09/09 03:28:59;;;;;;;4.82;4.57;;;13.70;99.90;;;;;;4194160;28;20090;-56
2023/09/09 03:31:20;;;;;;;3.80;3.67;;;13.70;99.90;;;;;;4194843;28;20051;-56
2023/09/09 03:33:40;;;;;;;4.40;4.13;;;13.70;99.90;;;;;;4198340;28;20359;-57
2023/09/09 03:36:00;;;;;;;4.55;4.15;;;13.80;99.90;;;;;;4196248;28;20048;-57
2023/09/09 03:38:20;;;;;;;4.10;3.90;;;13.80;99.90;;;;;;4198902;28;20120;-57
2023/09/09 03:40:43;;;;;;;5.18;4.95;;;13.80;99.90;;;;;;4196622;28;20051;-57
2023/09/09 03:43:03;;;;;;;3.97;3.80;;;13.70;99.90;;;;;;4193746;28;20048;-57
2023/09/09 03:45:24;;;;;;;4.85;4.75;;;13.60;99.90;;;;;;4194851;28;20075;-56
2023/09/09 03:47:43;;;;;;;5.38;5.07;;;13.60;99.90;;;;;;4193452;28;20095;-56
2023/09/09 03:50:04;;;;;;;5.15;5.05;;;13.70;99.90;;;;;;4193594;28;20048;-56
2023/09/09 03:52:24;;;;;;;4.80;4.70;;;13.40;99.90;;;;;;4191486;28;20044;-56
2023/09/09 03:54:45;;;;;;;5.22;5.13;;;13.50;99.90;;;;;;4191865;28;20051;-56
2023/09/09 03:57:04;;;;;;;5.68;5.32;;;13.60;99.90;;;;;;4191508;28;20110;-56
2023/09/09 03:59:29;;;;;;;5.10;4.90;;;13.50;99.90;;;;;;4191317;28;20159;-56
2023/09/09 04:01:49;;;;;;;4.78;4.47;;;13.60;99.90;;;;;;4192141;28;20394;-57
2023/09/09 04:04:09;;;;;;;4.20;4.10;;;13.60;99.90;;;;;;4192587;28;20088;-56
2023/09/09 04:06:29;;;;;;;4.53;4.32;;;13.60;99.90;;;;;;4191950;28;20048;-56
2023/09/09 04:08:55;;;;;;;5.15;5.05;;;13.60;99.90;;;;;;4192903;28;20083;-57
2023/09/09 04:11:15;;;;;;;4.45;3.83;;;13.50;99.90;;;;;;4192021;28;20362;-56
2023/09/09 04:13:38;;;;;;;4.38;4.28;;;13.50;99.90;;;;;;4191998;28;20043;-56
2023/09/09 04:15:59;;;;;;;4.95;4.75;;;13.50;99.90;;;;;;4191945;28;20355;-56
2023/09/09 04:18:20;;;;;;;5.55;4.72;;;13.50;99.90;;;;;;4191336;28;20081;-57
2023/09/09 04:20:58;;;;;;;5.47;5.38;;;13.50;99.90;;;;;;4189513;28;20056;-56
2023/09/09 04:23:18;;;;;;;5.72;5.50;;;13.40;99.90;;;;;;4191016;28;20052;-56
2023/09/09 04:25:38;;;;;;;6.35;6.05;;;13.20;99.90;;;;;;4193417;28;20051;-56
2023/09/09 04:27:59;;;;;;;5.20;4.80;;;13.00;99.90;;;;;;4193650;28;20048;-57
2023/09/09 04:30:19;;;;;;;6.00;5.63;;;12.90;99.90;;;;;;4192327;28;20047;-56
2023/09/09 04:32:39;;;;;;;6.07;5.82;;;12.90;99.90;;;;;;4192749;28;20047;-57
2023/09/09 04:34:59;;;;;;;6.00;5.80;;;12.90;99.90;;;;;;4194161;28;20047;-57
2023/09/09 04:37:19;;;;;;;5.93;5.65;;;12.90;99.90;;;;;;4192737;28;20232;-56
2023/09/09 04:39:39;;;;;;;6.22;5.93;;;12.90;99.90;;;;;;4192192;28;20048;-56
2023/09/09 04:41:59;;;;;;;6.05;5.78;;;12.90;99.90;;;;;;4192342;28;20051;-57
2023/09/09 04:44:19;;;;;;;5.95;5.75;;;12.90;99.90;;;;;;4191161;28;20048;-57
2023/09/09 04:46:39;;;;;;;9.45;6.45;;;12.60;99.90;;;;;;4189505;28;20044;-56
2023/09/09 04:48:59;;;;;;;5.75;5.65;;;12.60;99.90;;;;;;4190620;28;20047;-56
2023/09/09 04:51:19;;;;;;;6.32;6.22;;;12.50;99.90;;;;;;4195315;28;20278;-57
2023/09/09 04:53:39;;;;;;;7.55;6.97;;;12.40;99.90;;;;;;4193365;28;20056;-56
2023/09/09 04:56:01;;;;;;;6.63;6.40;;;12.40;99.90;;;;;;4192048;28;20089;-56
2023/09/09 04:58:23;;;;;;;6.18;6.03;;;12.40;99.90;;;;;;4192563;28;20090;-57
2023/09/09 05:00:42;;;;;;;6.90;6.50;;;12.50;99.90;;;;;;4191744;28;20044;-57
2023/09/09 05:03:02;;;;;;;7.13;7.03;;;12.50;99.90;;;;;;4193729;28;20090;-57
2023/09/09 05:05:22;;;;;;;7.53;6.95;;;12.60;99.90;;;;;;4192381;28;20121;-56
2023/09/09 05:07:42;;;;;;;8.27;7.70;;;12.60;99.90;;;;;;4191567;28;20044;-57
2023/09/09 05:10:06;;;;;;;6.78;6.43;;;12.60;99.90;;;;;;4190826;28;20102;-56
2023/09/09 05:12:26;;;;;;;6.95;6.65;;;12.60;99.90;;;;;;4191017;28;20059;-56
2023/09/09 05:14:46;;;;;;;6.05;5.57;;;12.60;99.90;;;;;;4187127;28;20276;-57
2023/09/09 05:17:06;;;;;;;7.30;6.90;;;12.60;99.90;;;;;;4195433;28;20090;-57
2023/09/09 05:19:26;;;;;;;5.55;5.45;;;12.70;99.90;;;;;;4189223;28;20052;-56
2023/09/09 05:21:46;;;;;;;6.43;6.20;;;12.70;99.90;;;;;;4188508;28;20083;-57
2023/09/09 05:24:07;;;;;;;5.25;5.05;;;12.80;99.90;;;;;;4190490;28;20044;-56
2023/09/09 05:26:26;;;;;;;6.50;6.20;;;12.80;99.90;;;;;;4189834;28;20083;-56
2023/09/09 05:28:46;;;;;;;6.25;6.15;;;12.80;99.90;;;;;;4191003;28;20079;-56
2023/09/09 05:31:06;;;;;;;6.70;6.35;;;12.80;99.90;;;;;;4190313;28;20104;-56
2023/09/09 05:33:26;;;;;;;8.52;7.80;;;12.80;99.90;;;;;;4190924;28;20072;-55
2023/09/09 05:35:50;;;;;;;8.35;7.90;;;12.80;99.90;;;;;;4191446;28;20080;-56
2023/09/09 05:38:10;;;;;;;6.85;6.75;;;12.70;99.90;;;;;;4188481;28;20044;-56
2023/09/09 05:40:30;;;;;;;7.05;6.78;;;12.70;99.90;;;;;;4190479;28;20119;-56
2023/09/09 05:42:49;;;;;;;6.93;6.53;;;12.70;99.90;;;;;;4190768;28;20109;-55
2023/09/09 05:45:11;;;;;;;6.30;5.57;;;12.80;99.90;;;;;;4190088;28;20048;-56
2023/09/09 05:47:31;;;;;;;5.72;5.63;;;12.90;99.90;;;;;;4191287;28;20079;-56
2023/09/09 05:49:51;;;;;;;5.93;5.82;;;12.90;99.90;;;;;;4190461;28;20048;-56
2023/09/09 05:52:12;;;;;;;6.13;6.00;;;13.00;99.90;;;;;;4192733;28;20393;-56
2023/09/09 05:54:32;;;;;;;5.97;5.75;;;13.10;99.90;;;;;;4192514;28;20056;-56
2023/09/09 05:56:52;;;;;;;5.55;5.25;;;13.10;99.90;;;;;;4192692;28;20109;-56
2023/09/09 05:59:13;;;;;;;6.03;5.72;;;13.20;99.90;;;;;;4192048;28;20043;-56
2023/09/09 06:01:33;;;;;;;4.45;4.20;;;13.20;99.90;;;;;;4190606;28;20116;-55
2023/09/09 06:03:54;;;;;;;4.55;4.43;;;13.30;99.90;;;;;;4190134;28;20051;-55
2023/09/09 06:06:14;;;;;;;5.28;4.85;;;13.50;99.90;;;;;;4190639;28;20143;-58
2023/09/09 06:08:34;;;;;;;5.00;4.65;;;13.70;99.90;;;;;;4189869;28;20048;-58
2023/09/09 06:10:54;;;;;;;4.80;4.50;;;13.90;99.90;;;;;;4189821;28;20060;-59
2023/09/09 06:13:14;;;;;;;4.60;4.18;;;14.10;99.90;;;;;;4189561;28;20079;-58
2023/09/09 06:15:35;;;;;;;4.05;3.95;;;14.30;99.90;;;;;;4191750;28;20048;-58
2023/09/09 06:17:57;;;;;;;4.10;4.00;;;14.50;99.90;;;;;;4192654;28;20055;-58
2023/09/09 06:20:17;;;;;;;4.63;4.53;;;14.60;99.90;;;;;;4191962;28;20044;-58
2023/09/09 06:22:37;;;;;;;6.25;3.65;;;14.80;99.90;;;;;;4191838;28;20087;-58
2023/09/09 06:24:57;;;;;;;3.97;3.70;;;14.90;99.90;;;;;;4190372;28;20048;-59
2023/09/09 06:27:17;;;;;;;5.10;4.25;;;15.00;99.90;;;;;;4190234;28;20107;-59
2023/09/09 06:29:37;;;;;;;3.42;3.33;;;15.20;99.90;;;;;;4189830;28;20059;-58
2023/09/09 06:31:57;;;;;;;3.67;3.58;;;15.40;99.90;;;;;;4190235;28;20315;-58
2023/09/09 06:34:17;;;;;;;4.03;3.72;;;15.50;99.90;;;;;;4191655;28;20267;-58
2023/09/09 06:36:37;;;;;;;4.57;4.32;;;15.50;99.90;;;;;;4190340;28;20059;-59
2023/09/09 06:38:57;;;;;;;3.67;3.58;;;15.70;99.90;;;;;;4190145;28;20048;-58
2023/09/09 06:41:17;;;;;;;6.85;3.15;;;15.80;99.90;;;;;;4189460;28;20048;-59
2023/09/09 06:43:37;;;;;;;4.28;3.47;;;15.90;99.90;;;;;;4190973;28;20125;-59
2023/09/09 06:45:59;;;;;;;5.53;3.45;;;16.10;99.90;;;;;;4190686;28;20269;-58
2023/09/09 06:48:21;;;;;;;3.15;3.05;;;16.20;99.90;;;;;;4191611;28;20056;-58
2023/09/09 06:50:40;;;;;;;3.47;3.25;;;16.30;99.90;;;;;;4189230;28;20388;-58
2023/09/09 06:53:00;;;;;;;3.17;2.97;;;16.40;99.90;;;;;;4189063;28;20091;-58
2023/09/09 06:55:21;;;;;;;3.08;2.97;;;16.40;99.90;;;;;;4189518;28;20120;-58
2023/09/09 06:57:40;;;;;;;2.75;2.75;;;16.60;99.90;;;;;;4188766;28;20055;-59
2023/09/09 07:00:00;;;;;;;2.35;2.25;;;16.80;99.90;;;;;;4189571;28;20056;-59
2023/09/09 07:02:20;;;;;;;1.80;1.80;;;17.00;99.90;;;;;;4188973;28;20051;-58
2023/09/09 07:04:40;;;;;;;2.47;2.38;;;17.20;99.90;;;;;;4188950;28;20071;-59
2023/09/09 07:07:03;;;;;;;2.75;2.58;;;17.30;99.90;;;;;;4189750;28;20128;-58
2023/09/09 07:09:33;;;;;;;;;;;17.50;99.90;;;;;;4185798;28;20071;-58
2023/09/09 07:11:53;;;;;;;2.65;2.55;;;17.70;99.90;;;;;;4189973;28;19931;-59
2023/09/09 07:14:13;;;;;;;4.43;3.00;;;18.10;99.90;;;;;;4188855;28;20059;-58
2023/09/09 07:16:33;;;;;;;2.90;2.70;;;18.30;99.90;;;;;;4188588;28;20044;-59
2023/09/09 07:18:53;;;;;;;7.70;4.35;;;18.50;99.90;;;;;;4189557;28;20052;-58
2023/09/09 07:21:13;;;;;;;3.15;2.90;;;18.80;99.90;;;;;;4188422;28;20390;-58
2023/09/09 07:23:33;;;;;;;2.75;2.55;;;19.10;99.90;;;;;;4191570;28;20387;-58
2023/09/09 07:25:53;;;;;;;2.60;2.50;;;19.40;99.90;;;;;;4190279;28;20091;-58
2023/09/09 07:28:14;;;;;;;2.53;2.40;;;19.70;99.90;;;;;;4193973;28;20259;-59
2023/09/09 07:30:34;;;;;;;3.03;2.22;;;20.00;99.90;;;;;;4196315;28;20115;-59
2023/09/09 07:32:54;;;;;;;2.22;2.13;;;20.30;99.90;;;;;;4193466;28;20104;-59
2023/09/09 07:35:14;;;;;;;3.20;2.33;;;20.40;99.90;;;;;;4192867;28;20091;-58
2023/09/09 07:37:34;;;;;;;2.08;1.98;;;20.70;99.90;;;;;;4191951;28;20048;-59
2023/09/09 07:39:57;;;;;;;3.15;2.17;;;21.10;99.90;;;;;;4191924;28;20051;-59
2023/09/09 07:42:18;;;;;;;1.88;1.70;;;21.30;99.60;;;;;;4192322;28;20098;-59
2023/09/09 07:44:38;;;;;;;1.83;1.83;;;21.50;99.50;;;;;;4192297;28;20443;-59
2023/09/09 07:46:57;;;;;;;2.58;2.47;;;21.70;98.90;;;;;;4191147;28;20259;-58
2023/09/09 07:49:21;;;;;;;1.63;1.58;;;22.00;98.60;;;;;;4193737;28;20224;-59
2023/09/09 07:51:40;;;;;;;2.78;1.85;;;22.30;98.20;;;;;;4193954;28;20271;-59
2023/09/09 07:54:00;;;;;;;2.45;1.75;;;22.50;97.60;;;;;;4193627;28;20094;-59
2023/09/09 07:56:20;;;;;;;1.48;1.48;;;22.70;96.80;;;;;;4193543;28;20067;-59
2023/09/09 07:58:40;;;;;;;3.03;1.30;;;22.90;96.50;;;;;;4193913;28;20236;-59
2023/09/09 08:01:03;;;;;;;2.00;1.40;;;23.10;95.40;;;;;;4193188;28;20073;-59
2023/09/09 08:03:23;;;;;;;2.08;1.88;;;23.20;95.70;;;;;;4191812;28;20122;-59
2023/09/09 08:05:43;;;;;;;2.08;1.95;;;23.30;95.60;;;;;;4192253;28;20063;-59
2023/09/09 08:08:05;;;;;;;1.65;1.55;;;23.40;94.90;;;;;;4190030;28;20055;-59
2023/09/09 08:10:25;;;;;;;2.42;1.48;;;23.70;95.00;;;;;;4192385;28;20275;-59
2023/09/09 08:12:45;;;;;;;1.67;1.05;;;24.00;93.60;;;;;;4191021;28;20273;-59
2023/09/09 08:15:12;;;;;;;1.20;1.20;;;24.20;94.20;;;;;;4191398;28;20071;-59
2023/09/09 08:17:38;;;;;;;2.80;1.17;;;24.30;93.40;;;;;;4196611;28;20110;-59
2023/09/09 08:19:58;;;;;;;2.22;1.10;;;24.30;93.50;;;;;;4190787;28;20048;-59
2023/09/09 08:22:17;;;;;;;2.30;1.10;;;24.50;92.50;;;;;;4191106;28;20279;-59
2023/09/09 08:24:38;;;;;;;1.55;1.45;;;24.50;92.50;;;;;;4191325;28;20403;-60
2023/09/09 08:26:58;;;;;;;3.85;1.13;;;24.70;94.00;;;;;;4190651;28;20385;-59
2023/09/09 08:29:17;;;;;;;1.40;1.13;;;24.90;92.40;;;;;;4190065;28;20104;-59
2023/09/09 08:31:37;;;;;;;1.00;1.00;;;25.00;92.20;;;;;;4191984;28;20068;-59
2023/09/09 08:33:58;;;;;;;1.55;1.45;;;25.00;92.80;;;;;;4191209;28;20047;-60
2023/09/09 08:36:17;;;;;;;1.10;1.10;;;25.30;92.20;;;;;;4190595;28;20118;-59
2023/09/09 08:38:38;;;;;;;0.90;0.90;;;25.50;92.20;;;;;;4190247;28;20052;-59
2023/09/09 08:41:25;;;;;;;4.72;0.98;;;25.50;92.30;;;;;;4192070;28;20067;-59
2023/09/09 08:44:08;;;;;;;1.17;0.90;;;25.80;91.90;;;;;;4192244;28;20367;-57
2023/09/09 08:46:28;;;;;;;2.15;1.20;;;26.20;91.50;;;;;;4196587;28;20060;-57
2023/09/09 08:48:52;;;;;;;1.65;1.10;;;26.30;91.20;;;;;;4193409;28;20052;-56
2023/09/09 08:51:15;;;;;;;3.70;0.90;;;26.30;91.40;;;;;;4191254;28;20079;-57
2023/09/09 08:53:35;;;;;;;;;;;26.30;90.40;;;;;;4192666;28;20040;-56
2023/09/09 08:55:56;;;;;;;2.42;1.00;;;26.40;90.50;;;;;;4192946;28;19924;-57
2023/09/09 08:58:16;;;;;;;1.00;1.00;;;26.70;90.70;;;;;;4190880;28;20067;-57
2023/09/09 09:00:39;;;;;;;;;;;26.70;90.20;;;;;;4191457;28;20095;-57
2023/09/09 09:03:03;;;;;;;3.53;0.82;;;26.50;86.70;;;;;;4189156;28;19923;-57
2023/09/09 09:05:25;;;;;;;6.80;2.10;;;26.40;87.50;;;;;;4190540;28;20367;-56
2023/09/09 09:07:45;;;;;;;1.00;0.93;;;26.60;89.10;;;;;;4191762;28;20055;-57
2023/09/09 09:10:05;;;;;;;3.17;0.90;;;26.80;88.20;;;;;;4193380;28;20043;-57
2023/09/09 09:12:28;;;;;;;1.05;0.80;;;27.00;84.80;;;;;;4194692;28;20038;-57
2023/09/09 09:14:48;;;;;;;0.77;0.70;;;27.30;86.10;;;;;;4191390;28;20055;-57
2023/09/09 09:17:09;;;;;;;2.50;1.15;;;27.30;82.90;;;;;;4192833;28;20039;-57
2023/09/09 09:19:30;;;;;;;0.80;0.80;;;27.30;79.70;;;;;;4193579;28;20143;-57
2023/09/09 09:21:51;;;;;;;1.48;0.80;;;27.40;80.20;;;;;;4191203;28;20370;-57
2023/09/09 09:24:11;;;;;;;1.13;0.80;;;27.30;79.70;;;;;;4190747;28;20056;-57
2023/09/09 09:26:31;;;;;;;0.90;0.90;;;27.20;79.40;;;;;;4190938;28;20051;-57
2023/09/09 09:28:52;;;;;;;0.60;0.60;;;27.40;79.30;;;;;;4190338;28;20118;-57
2023/09/09 09:31:20;;;;;;;0.80;0.80;;;27.40;77.90;;;;;;4190969;28;20235;-57
2023/09/09 09:33:40;;;;;;;0.90;0.90;;;27.40;74.90;;;;;;4190581;28;20040;-57
2023/09/09 09:36:00;;;;;;;0.60;0.60;;;27.40;75.40;;;;;;4191689;28;20087;-57
2023/09/09 09:38:21;;;;;;;4.10;0.77;;;27.70;75.40;;;;;;4191070;28;20052;-58
2023/09/09 09:40:41;;;;;;;1.33;0.70;;;27.80;75.60;;;;;;4192516;28;20158;-57
2023/09/09 09:43:01;;;;;;;2.22;0.75;;;27.90;76.30;;;;;;4192707;28;20075;-57
2023/09/09 09:45:26;;;;;;;4.90;0.70;;;27.90;72.40;;;;;;4191158;28;20362;-57
2023/09/09 09:47:47;;;;;;;0.70;0.70;;;28.00;72.10;;;;;;4191395;28;20044;-57
2023/09/09 09:50:07;;;;;;;0.73;0.73;;;28.10;74.00;;;;;;4188429;28;20052;-57
2023/09/09 09:52:29;;;;;;;0.70;0.70;;;28.50;73.10;;;;;;4188497;28;20081;-57
2023/09/09 09:54:51;;;;;;;1.77;0.70;;;28.50;72.00;;;;;;4190113;28;20096;-57
2023/09/09 09:57:12;;;;;;;0.70;0.70;;;28.50;72.30;;;;;;4190062;28;20458;-58
2023/09/09 09:59:33;;;;;;;0.70;0.70;;;28.60;71.10;;;;;;4190461;28;20047;-57
2023/09/09 10:01:55;;;;;;;0.70;0.70;;;28.90;72.00;;;;;;4190492;28;20146;-57
2023/09/09 10:04:17;;;;;;;0.70;0.70;;;29.00;71.80;;;;;;4189615;28;20232;-57
2023/09/09 10:06:38;;;;;;;;;;;29.00;71.20;;;;;;4190338;28;20091;-57
2023/09/09 10:09:19;;;;;;;0.60;0.60;;;28.90;69.40;;;;;;4191370;28;20112;-57
2023/09/09 10:12:04;;;;;;;2.05;0.70;;;29.00;71.20;;;;;;4190123;28;20121;-57
2023/09/09 10:14:26;;;;;;;0.70;0.70;;;29.20;68.10;;;;;;4191492;28;20382;-57
2023/09/09 10:16:48;;;;;;;3.28;0.70;;;29.10;70.50;;;;;;4189914;28;20052;-57
2023/09/09 10:19:11;;;;;;;1.42;0.70;;;29.00;70.40;;;;;;4202030;28;20244;-57
2023/09/09 10:21:33;;;;;;;1.15;0.70;;;28.90;68.60;;;;;;4190699;28;20113;-57
2023/09/09 10:24:05;;;;;;;0.70;0.70;;;29.50;73.20;;;;;;4190248;28;20151;-57
2023/09/09 10:26:25;;;;;;;1.55;0.70;;;29.10;68.30;;;;;;4191309;28;20287;-57
2023/09/09 10:28:49;;;;;;;0.70;0.70;;;29.30;71.80;;;;;;4190946;28;20043;-56
2023/09/09 10:31:12;;;;;;;0.60;0.60;;;29.50;69.50;;;;;;4189462;28;20094;-57
2023/09/09 10:33:33;;;;;;;0.60;0.60;;;29.50;70.90;;;;;;4188480;28;20043;-57
2023/09/09 10:35:55;;;;;;;0.60;0.60;;;29.60;67.10;;;;;;4192441;28;20370;-60
2023/09/09 10:38:16;;;;;;;3.45;0.68;;;29.90;68.80;;;;;;4191183;28;20055;-60
2023/09/09 10:40:36;;;;;;;0.60;0.60;;;30.20;70.80;;;;;;4190156;28;20044;-57
2023/09/09 10:42:56;;;;;;;0.50;0.50;;;30.50;64.30;;;;;;4190024;28;20055;-56
2023/09/09 10:45:30;;;;;;;1.85;0.60;;;30.60;64.70;;;;;;4189384;28;20060;-56
2023/09/09 10:48:10;;;;;;;1.52;0.80;;;30.60;65.70;;;;;;4192991;28;20439;-56
2023/09/09 10:50:45;;;;;;;0.60;0.60;;;30.00;66.50;;;;;;4192591;28;20056;-57
2023/09/09 10:53:26;;;;;;;3.17;0.60;;;30.10;67.70;;;;;;4189860;28;20279;-57
2023/09/09 10:55:47;;;;;;;0.73;0.70;;;30.30;67.50;;;;;;4190641;28;20139;-56
2023/09/09 10:58:07;;;;;;;0.60;0.60;;;30.40;71.90;;;;;;4189908;28;20079;-57
2023/09/09 11:00:39;;;;;;;2.78;0.70;;;30.40;67.50;;;;;;4189549;28;20086;-57
2023/09/09 11:02:59;;;;;;;2.67;0.60;;;30.50;68.50;;;;;;4193862;28;20067;-56
2023/09/09 11:05:21;;;;;;;0.60;0.60;;;30.10;66.00;;;;;;4193431;28;20048;-57
2023/09/09 11:07:42;;;;;;;;;;;30.10;67.10;;;;;;4193273;28;20055;-56
2023/09/09 11:10:03;;;;;;;0.63;0.60;;;30.50;68.40;;;;;;4191126;28;19992;-56
2023/09/09 11:12:27;;;;;;;0.60;0.60;;;30.60;66.00;;;;;;4195274;28;20044;-56
2023/09/09 11:15:00;;;;;;;0.63;0.63;;;31.00;65.90;;;;;;4193311;28;20079;-57
2023/09/09 11:17:20;;;;;;;0.60;0.60;;;31.10;67.80;;;;;;4192695;28;20047;-56
2023/09/09 11:19:43;;;;;;;0.63;0.63;;;30.60;66.80;;;;;;4191552;28;20375;-57
2023/09/09 11:22:06;;;;;;;1.38;0.60;;;30.50;67.30;;;;;;4191002;28;20117;-57
2023/09/09 11:24:26;;;;;;;1.25;1.15;;;30.60;69.90;;;;;;4190705;28;20240;-56
2023/09/09 11:26:48;;;;;;;1.90;0.70;;;31.20;67.70;;;;;;4191825;28;20370;-57
2023/09/09 11:29:09;;;;;;;0.93;0.88;;;31.10;68.20;;;;;;4192046;28;20051;-57
2023/09/09 11:31:40;;;;;;;1.92;0.60;;;31.30;69.00;;;;;;4192824;28;20118;-56
2023/09/09 11:34:01;;;;;;;0.70;0.70;;;31.30;67.10;;;;;;4192424;28;20052;-56
2023/09/09 11:36:21;;;;;;;1.45;0.60;;;31.00;67.20;;;;;;4191671;28;20083;-57
2023/09/09 11:38:41;;;;;;;1.52;0.60;;;31.00;67.00;;;;;;4193374;28;20091;-56
2023/09/09 11:41:01;;;;;;;0.60;0.60;;;31.10;66.50;;;;;;4192299;28;20067;-56
2023/09/09 11:43:21;;;;;;;0.60;0.60;;;31.30;66.50;;;;;;4193529;28;20090;-56
2023/09/09 11:45:41;;;;;;;0.65;0.65;;;31.50;68.00;;;;;;4192865;28;20374;-56
2023/09/09 11:48:02;;;;;;;0.68;0.68;;;31.30;68.10;;;;;;4192639;28;20056;-56
2023/09/09 11:50:22;;;;;;;0.60;0.60;;;31.00;66.90;;;;;;4192765;28;20051;-56
2023/09/09 11:52:42;;;;;;;1.40;0.70;;;30.80;64.90;;;;;;4193127;28;20091;-56
2023/09/09 11:55:03;;;;;;;3.53;0.60;;;30.90;67.40;;;;;;4190822;28;20244;-56
2023/09/09 11:57:23;;;;;;;1.05;0.63;;;30.80;66.60;;;;;;4191805;28;20047;-57
2023/09/09 11:59:50;;;;;;;0.60;0.60;;;31.00;66.60;;;;;;4191056;28;20048;-57
2023/09/09 12:02:20;;;;;;;0.60;0.60;;;31.10;69.80;;;;;;4190913;28;20044;-57
2023/09/09 12:04:55;;;;;;;0.50;0.50;;;31.20;67.30;;;;;;4193143;28;20075;-56
2023/09/09 12:07:15;;;;;;;4.20;0.60;;;31.50;66.60;;;;;;4194179;28;20367;-57
2023/09/09 12:09:35;;;;;;;0.70;0.70;;;31.80;66.90;;;;;;4195260;28;20066;-57
2023/09/09 12:11:56;;;;;;;2.58;0.65;;;31.90;66.70;;;;;;4193870;28;20120;-56
2023/09/09 12:14:16;;;;;;;0.50;0.50;;;31.70;67.40;;;;;;4193408;28;20060;-56
2023/09/09 12:16:38;;;;;;;0.50;0.50;;;31.50;66.80;;;;;;4191468;28;20090;-56